Terminal Aerodrome Forecast
Issued by NWS

Home | Current Version | Previous Version | Text Only | Print | Product List | Glossary On
Versions: 1 2 3 4 5 6 7 8 9 10 11 12
000
FTUS42 KTAE 042320
TAFVLD
TAF
KVLD 042320Z 0500/0524 19007KT P6SM SCT015 OVC050
     FM050800 17004KT 4SM -RA BR OVC010
     FM051400 18006KT P6SM -SHRA BKN010
     FM052000 16006KT 4SM RA BR BKN007 OVC015=

USA.gov is the U.S. government's official web portal to all federal, state and local government web resources and services.